This is the latest recevied weather packets stored in our database for station/object N7SWJ. If no packets are shown the sender has not sent any weather packets the latest 10 day(s).
| Time | Temp. | Humidity | Pressure | Rain* | Wind** | Luminosity | Snow |
|---|---|---|---|---|---|---|---|
| 1777324678 | 15.56° C | 39% | 1013.3 hPa | 0 mm | - | 202 W/m² | - |
| 1777324376 | 16.11° C | 37% | 1013.3 hPa | 0 mm | - | 323 W/m² | - |
| 1777324073 | 15° C | 39% | 1013.5 hPa | 0 mm | - | 391 W/m² | - |
| 1777323770 | 15° C | 39% | 1013.5 hPa | 0 mm | - | 554 W/m² | - |
| 1777323468 | 16.67° C | 37% | 1013.5 hPa | 0 mm | - | 374 W/m² | - |
| 1777323166 | 15.56° C | 40% | 1013.5 hPa | 0 mm | - | 559 W/m² | - |
| 1777322863 | 16.11° C | 38% | 1013.6 hPa | 0 mm | - | 383 W/m² | - |
| 1777322562 | 16.67° C | 38% | 1013.6 hPa | 0 mm | - | 419 W/m² | - |
| 1777322258 | 15.56° C | 38% | 1013.7 hPa | 0 mm | - | 749 W/m² | - |
| 1777321955 | 15° C | 40% | 1013.7 hPa | 0 mm | - | 731 W/m² | - |
| 1777321652 | 13.89° C | 41% | 1013.8 hPa | 0 mm | - | 779 W/m² | - |
| 1777321348 | 15.56° C | 39% | 1013.6 hPa | 0 mm | - | 256 W/m² | - |
| 1777321045 | 16.11° C | 38% | 1013.7 hPa | 0 mm | - | 782 W/m² | - |
| 1777320744 | 15.56° C | 39% | 1013.7 hPa | 0 mm | - | 740 W/m² | - |
| 1777320440 | 15.56° C | 39% | 1013.6 hPa | 0 mm | - | 746 W/m² | - |
| 1777320138 | 14.44° C | 41% | 1013.6 hPa | 0 mm | - | 758 W/m² | - |
| 1777319835 | 15° C | 41% | 1013.6 hPa | 0 mm | - | 739 W/m² | - |
| 1777319531 | 14.44° C | 42% | 1013.6 hPa | 0 mm | - | 751 W/m² | - |
| 1777319229 | 14.44° C | 42% | 1013.8 hPa | 0 mm | - | 770 W/m² | - |
| 1777318925 | 13.33° C | 43% | 1014 hPa | 0 mm | - | 761 W/m² | - |
| 1777318623 | 13.33° C | 43% | 1013.8 hPa | 0 mm | - | 770 W/m² | - |
| 1777318318 | 14.44° C | 42% | 1013.8 hPa | 0 mm | - | 782 W/m² | - |
| 1777318015 | 14.44° C | 43% | 1014 hPa | 0 mm | - | 339 W/m² | - |
| 1777317712 | 14.44° C | 43% | 1014 hPa | 0 mm | - | 779 W/m² | - |
| 1777317409 | 15° C | 41% | 1014.3 hPa | 0 mm | - | 787 W/m² | - |
* Rain latest hour (hover to see other rain measurements)
** Current wind speed in m/s (hover to see current wind gust speed)